• Join FlightAware (Why Join?)
  • Login
  • US Flag 
09:23AM EDT


 

Airport Tracker/Info


-or-


 

Live Flight TrackerFlight Track Log ✈ N523JM ✈ 27-Sep-2013 ✈ KOSU - KMTJ

Flight Track Log - Related Links

Times and Time Zones

All times are in EDT time to prevent confusion due to time zone crossing. See the N523JM flight status page for this flight to view local times or setup timezone preferences in your user account.

Time Position Orientation Groundspeed Altitude Reporting Facility
EDT Latitude Longitude Course Direction KTS MPH feet Rate Location/Type
07:15PM 40.0769 -83.0506 67° East 168 193 1,700  Level Indianapolis Center
07:15PM 40.0919 -83.0036 67° East 203 234 2,800 1,380 Climbing Indianapolis Center
07:16PM 40.1092 -82.9792 47° Northeast 217 250 3,500 2,820 Climbing Indianapolis Center
07:17PM 40.1719 -82.9756 North 267 307 7,100 3,060 Climbing Indianapolis Center
07:18PM 40.1681 -83.0694 267° West 272 313 9,900 2,820 Climbing Indianapolis Center
07:19PM 40.1389 -83.1992 254° West 307 353 13,000 2,520 Climbing Indianapolis Center
07:20PM 40.1483 -83.3194 276° West 333 383 15,200 1,980 Climbing Indianapolis Center
07:21PM 40.1539 -83.4461 273° West 351 404 17,100 1,620 Climbing Indianapolis Center
07:22PM 40.1578 -83.5794 272° West 369 425 18,600 1,500 Climbing Indianapolis Center
07:23PM 40.1619 -83.7178 272° West 383 441 20,200 1,620 Climbing Indianapolis Center
07:24PM 40.1664 -83.8872 272° West 391 450 22,000 1,620 Climbing Indianapolis Center
07:25PM 40.1706 -84.0325 272° West 402 463 23,600 1,500 Climbing Indianapolis Center
07:26PM 40.1947 -84.1758 282° West 406 467 25,100 1,440 Climbing Indianapolis Center
07:27PM 40.2281 -84.3153 287° West 404 465 26,600 1,440 Climbing Indianapolis Center
07:28PM 40.2606 -84.4536 287° West 401 461 28,100 1,320 Climbing Indianapolis Center
07:29PM 40.2725 -84.6294 275° West 417 480 29,400 1,140 Climbing Indianapolis Center
07:30PM 40.2747 -84.7800 271° West 417 480 30,500 960 Climbing Indianapolis Center
07:31PM 40.2764 -84.9267 271° West 420 483 31,400 840 Climbing Indianapolis Center
07:32PM 40.2781 -85.0803 271° West 423 487 32,300 780 Climbing Indianapolis Center
07:33PM 40.2800 -85.2358 271° West 428 493 33,100 840 Climbing Indianapolis Center
07:34PM 40.2817 -85.4200 271° West 426 490 34,100 900 Climbing Indianapolis Center
07:36PM 40.2828 -85.5739 271° West 426 490 35,000 780 Climbing Indianapolis Center
07:37PM 40.2844 -85.7267 271° West 424 488 35,800 420 Climbing Indianapolis Center
07:38PM 40.2856 -85.8775 271° West 423 487 36,000 60 Climbing Chicago Center
07:39PM 40.2867 -86.0661 271° West 435 501 36,000  Level Chicago Center
07:40PM 40.2869 -86.2258 270° West 442 509 36,000  Level Chicago Center
07:41PM 40.2878 -86.3864 270° West 444 511 36,000  Level Chicago Center
07:42PM 40.2875 -86.5483 270° West 447 514 36,000  Level Chicago Center
07:43PM 40.2878 -86.7100 270° West 447 514 36,000  Level Chicago Center
07:44PM 40.2864 -86.9050 270° West 450 518 36,000  Level Chicago Center
07:45PM 40.2867 -87.0650 270° West 444 511 36,000  Level Chicago Center
07:46PM 40.2853 -87.2258 269° West 445 512 36,000  Level Chicago Center
07:47PM 40.2839 -87.3858 269° West 443 510 36,000  Level Chicago Center
07:48PM 40.2828 -87.5733 270° West 444 511 36,000  Level Chicago Center
07:49PM 40.2808 -87.7347 269° West 444 511 36,000  Level Chicago Center
07:50PM 40.2800 -87.8947 270° West 443 510 36,000  Level Chicago Center
07:51PM 40.2769 -88.0558 269° West 444 511 36,000  Level Chicago Center
07:52PM 40.2756 -88.2158 269° West 441 507 36,000  Level Chicago Center
07:53PM 40.2731 -88.4069 269° West 440 506 36,000  Level Chicago Center
07:54PM 40.2706 -88.5681 269° West 438 504 36,000  Level Chicago Center
07:55PM 40.2681 -88.7281 269° West 438 504 36,000  Level Chicago Center
07:56PM 40.2642 -88.8867 268° West 436 502 36,000  Level Chicago Center
07:57PM 40.2603 -89.0467 268° West 438 504 36,000  Level Chicago Center
07:58PM 40.2575 -89.2081 269° West 444 511 36,000  Level Chicago Center
07:59PM 40.2536 -89.3689 268° West 442 509 36,000  Level Chicago Center
08:00PM 40.2489 -89.5292 268° West 440 506 36,000  Level Chicago Center
08:01PM 40.2439 -89.7231 268° West 443 510 36,000  Level Chicago Center
08:03PM 40.2392 -89.8842 268° West 441 507 36,000  Level Kansas City Center
08:04PM 40.2339 -90.0464 268° West 442 509 36,000  Level Kansas City Center
08:05PM 40.2289 -90.2064 268° West 443 510 36,000  Level Chicago Center
08:06PM 40.2242 -90.3683 268° West 444 511 36,000  Level Chicago Center
08:07PM 40.2192 -90.5283 268° West 440 506 36,000  Level Chicago Center
08:08PM 40.2133 -90.6878 267° West 439 505 36,000  Level Chicago Center
08:09PM 40.2061 -90.8797 267° West 440 506 36,000  Level Chicago Center
08:10PM 40.2008 -91.0369 268° West 436 502 36,000  Level Chicago Center
08:11PM 40.1933 -91.1931 266° West 438 504 36,000  Level Kansas City Center
08:12PM 40.1869 -91.3508 267° West 438 504 36,000  Level Kansas City Center
08:13PM 40.1789 -91.5083 266° West 439 505 36,000  Level Kansas City Center
08:14PM 40.1714 -91.6958 267° West 435 501 36,000  Level Kansas City Center
08:15PM 40.1661 -91.8517 268° West 433 498 36,000  Level Kansas City Center
08:16PM 40.1583 -92.0072 266° West 433 498 36,000  Level Kansas City Center
08:17PM 40.1508 -92.1628 266° West 431 496 36,000  Level Kansas City Center
08:18PM 40.1428 -92.3197 266° West 432 497 36,000  Level Kansas City Center
08:19PM 40.1325 -92.5072 266° West 434 499 36,000  Level Kansas City Center
08:20PM 40.1253 -92.6586 266° West 436 502 36,000  Level Kansas City Center
08:21PM 40.1172 -92.8100 266° West 436 502 36,000  Level Kansas City Center
08:22PM 40.1075 -92.9842 266° West 433 498 36,000  Level Kansas City Center
08:23PM 40.0992 -93.1411 266° West 434 499 36,000  Level Kansas City Center
08:24PM 40.0878 -93.2950 265° West 431 496 36,000  Level Kansas City Center
08:25PM 40.0811 -93.4500 267° West 429 494 36,000  Level Kansas City Center
08:26PM 40.0717 -93.6036 265° West 429 494 36,000  Level Kansas City Center
08:27PM 40.0592 -93.7878 265° West 428 493 36,000  Level Kansas City Center
08:28PM 40.0511 -93.9408 266° West 427 491 36,000  Level Kansas City Center
08:29PM 40.0414 -94.0953 265° West 424 488 36,000  Level Kansas City Center
08:30PM 40.0308 -94.2675 265° West 427 491 36,000  Level Kansas City Center
08:31PM 40.0203 -94.4125 265° West 422 486 36,000  Level Kansas City Center
08:32PM 40.0103 -94.5581 265° West 422 486 36,000  Level Kansas City Center
08:33PM 39.9978 -94.7275 265° West 422 486 36,000  Level Kansas City Center
08:34PM 39.9881 -94.8714 265° West 419 482 36,000  Level Kansas City Center
08:36PM 39.9756 -95.0406 265° West 422 486 36,000  Level Kansas City Center
08:37PM 39.9642 -95.1839 264° West 418 481 36,000  Level Kansas City Center
08:38PM 39.9525 -95.3519 265° West 419 482 36,000  Level Kansas City Center
08:39PM 39.9403 -95.4969 264° West 421 484 36,000  Level Kansas City Center
08:40PM 39.9278 -95.6661 265° West 422 486 36,000  Level Kansas City Center
08:41PM 39.9156 -95.8083 264° West 419 482 36,000  Level Kansas City Center
08:42PM 39.9014 -95.9786 264° West 422 486 36,000  Level Kansas City Center
08:43PM 39.8900 -96.1225 264° West 420 483 36,000  Level Kansas City Center
08:44PM 39.8786 -96.2856 265° West 423 487 36,000  Level Kansas City Center
08:45PM 39.8650 -96.4361 263° West 420 483 36,000  Level Kansas City Center
08:46PM 39.8522 -96.5872 264° West 419 482 36,000  Level Kansas City Center
08:47PM 39.8392 -96.7392 264° West 421 484 36,000  Level Kansas City Center
08:48PM 39.8267 -96.8881 264° West 417 480 36,000  Level Kansas City Center
08:49PM 39.8128 -97.0389 263° West 419 482 36,000  Level Kansas City Center
08:50PM 39.7986 -97.1878 263° West 416 479 36,000  Level Kansas City Center
08:51PM 39.7836 -97.3675 264° West 416 479 36,000  Level Kansas City Center
08:52PM 39.7703 -97.5125 263° West 412 474 36,000  Level Kansas City Center
08:53PM 39.7561 -97.6597 263° West 409 471 36,000  Level Kansas City Center
08:54PM 39.7408 -97.8094 262° West 414 476 36,000  Level Kansas City Center
08:55PM 39.7242 -97.9628 262° West 416 479 36,000  Level Minneapolis Center
08:56PM 39.7089 -98.1131 263° West 418 481 36,000  Level Minneapolis Center
08:57PM 39.6903 -98.2906 262° West 415 478 36,000  Level Minneapolis Center
08:58PM 39.6750 -98.4397 262° West 415 478 36,000  Level Minneapolis Center
08:59PM 39.6594 -98.5872 262° West 414 476 36,000  Level Minneapolis Center
09:00PM 39.6447 -98.7381 263° West 416 479 36,000  Level Minneapolis Center
09:01PM 39.6286 -98.8847 262° West 414 476 36,000  Level Minneapolis Center
09:02PM 39.6164 -99.0014 262° West 410 472 36,000 300 Level Denver Center
09:03PM 39.6008 -99.1456 262° West 406 467 36,600 600 Climbing Denver Center
09:04PM 39.5847 -99.2867 262° West 399 459 37,300 600 Climbing Denver Center
09:05PM 39.5697 -99.4236 262° West 389 448 37,900 300 Climbing Denver Center
09:06PM 39.5514 -99.5872 262° West 383 441 38,000  Climbing Denver Center
09:07PM 39.5358 -99.7275 262° West 388 447 38,000  Level Denver Center
09:08PM 39.5194 -99.8675 261° West 392 451 38,000  Level Denver Center
09:09PM 39.5028 -100.0056 261° West 397 457 38,000  Level Denver Center
09:10PM 39.4844 -100.1628 261° West 396 456 38,000 120 Level Denver Center
09:11PM 39.4683 -100.2986 261° West 397 457 38,300 480 Climbing Denver Center
09:12PM 39.4492 -100.4519 261° West 389 448 39,100 660 Climbing Denver Center
09:13PM 39.4344 -100.5778 261° West 375 432 39,700 420 Climbing Denver Center
09:14PM 39.4189 -100.7022 261° West 370 426 40,000 120 Climbing Denver Center
09:15PM 39.4006 -100.8481 261° West 368 423 40,000  Level Denver Center
09:16PM 39.3853 -100.9769 261° West 376 433 40,000  Level Denver Center
09:18PM 39.3653 -101.1272 260° West 380 437 40,000  Level Denver Center
09:19PM 39.3483 -101.2583 261° West 385 443 40,000  Level Denver Center
09:20PM 39.3261 -101.4353 261° West 390 449 40,000  Level Denver Center
09:21PM 39.3083 -101.5711 260° West 399 459 40,000  Level Denver Center
09:22PM 39.2889 -101.7175 260° West 393 452 40,000  Level Denver Center
09:23PM 39.2681 -101.8722 260° West 392 451 40,000  Level Denver Center
09:24PM 39.2500 -102.0042 260° West 391 450 40,000  Level Denver Center
09:25PM 39.2292 -102.1603 260° West 396 456 40,000  Level Denver Center
09:26PM 39.2108 -102.2933 260° West 396 456 40,000  Level Denver Center
09:27PM 39.1928 -102.4272 260° West 397 457 40,000  Level Denver Center
09:28PM 39.1700 -102.5806 259° West 393 452 40,000  Level Denver Center
09:29PM 39.1522 -102.7094 260° West 386 444 40,000  Level Denver Center
09:30PM 39.1314 -102.8594 260° West 386 444 40,000  Level Denver Center
09:31PM 39.1114 -102.9931 259° West 382 440 40,000  Level Denver Center
09:32PM 39.0958 -103.1017 260° West 385 443 40,000  Level Denver Center
09:33PM 39.0719 -103.2653 259° West 389 448 40,000  Level Denver Center
09:34PM 39.0522 -103.4022 260° West 390 449 40,000  Level Denver Center
09:35PM 39.0239 -103.5919 259° West 387 445 40,000 -60 Level Denver Center
09:36PM 39.0028 -103.7264 259° West 384 442 39,900 -720 Descending Denver Center
09:38PM 38.9822 -103.8656 259° West 394 453 38,600 -960 Descending Denver Center
09:39PM 38.9600 -104.0086 259° West 407 468 38,000 -300 Descending Denver Center
09:40PM 38.9439 -104.1194 259° West 398 458 38,000 -180 Level Denver Center
09:41PM 38.9222 -104.2553 258° West 391 450 37,700 -540 Descending Denver Center
09:42PM 38.9003 -104.3933 258° West 393 452 36,900 -1,200 Descending Denver Center
09:43PM 38.8692 -104.5917 259° West 403 464 35,300 -1,380 Descending Denver Center
09:44PM 38.8464 -104.7358 259° West 410 472 34,100 -660 Descending Denver Center
09:45PM 38.8278 -104.8481 258° West 406 467 34,000 -60 Descending Denver Center
09:46PM 38.8022 -105.0122 259° West 393 452 34,000  Level Denver Center
09:47PM 38.7797 -105.1458 258° West 386 444 34,000  Level Denver Center
09:48PM 38.7581 -105.2806 258° West 386 444 34,000  Level Denver Center
09:49PM 38.7342 -105.4175 257° West 391 450 34,000  Level Denver Center
09:50PM 38.7117 -105.5528 258° West 390 449 34,000  Level Denver Center
09:51PM 38.6883 -105.6875 258° West 389 448 34,000  Level Denver Center
09:52PM 38.6611 -105.8511 258° West 391 450 34,000 -660 Level Denver Center
09:53PM 38.6381 -105.9878 258° West 393 452 32,700 -1,680 Descending Denver Center
09:54PM 38.6136 -106.1281 257° West 402 463 30,600 -2,040 Descending Denver Center
09:55PM 38.5892 -106.2703 258° West 413 475 28,600 -2,040 Descending Denver Center
09:56PM 38.5631 -106.4169 257° West 419 482 26,500 -2,160 Descending Denver Center
09:57PM 38.5378 -106.5567 257° West 400 460 24,200 -2,340 Descending Denver Center
09:58PM 38.5156 -106.6839 257° West 366 421 21,700 -2,460 Descending Denver Center
09:59PM 38.4944 -106.8022 257° West 359 413 19,200 -2,400 Descending Denver Center
10:00PM 38.4683 -106.9425 257° West 344 396 16,900 -1,560 Descending Denver Center
10:01PM 38.4511 -107.0431 258° West 305 351 16,000 -900 Descending Denver Center
10:02PM 38.4856 -107.1278 297° West 274 315 15,100 -540 Descending Denver Center
10:03PM 38.5222 -107.2283 295° West 265 305 15,000 -360 Descending Denver Center
10:04PM 38.5450 -107.2922 295° West 257 296 14,400 -540 Descending Denver Center
10:05PM 38.5811 -107.3964 294° West 262 302 14,000 -240 Descending Denver Center
10:06PM 38.6086 -107.4786 293° West 257 296 14,000  Level Denver Center
10:07PM 38.6389 -107.5619 295° West 252 290 14,000  Level Denver Center
10:08PM 38.6719 -107.6542 295° West 277 319 14,000 -360 Level Denver Center
10:10PM 38.7028 -107.7489 293° West 286 329 13,200 -1,020 Descending Denver Center
10:11PM 38.7483 -107.8731 295° West 277 319 11,700 -1,260 Descending Denver Center
10:12PM 38.7250 -107.9317 243° Southwest 253 291 10,700 -1,260 Descending Denver Center
10:13PM 38.6756 -107.8961 151° Southeast 220 253 9,100 -1,560 Descending Denver Center